sensor_id;sensor_type;location;lat;lon;timestamp;P1;durP1;ratioP1;P2;durP2;ratioP2
55112;SDS011;41006;50.920;3.456;2023-02-01T00:00:20;25.48;;;11.32;;
55112;SDS011;41006;50.920;3.456;2023-02-01T00:00:52;20.40;;;10.32;;
55112;SDS011;41006;50.920;3.456;2023-02-01T00:01:22;20.15;;;10.10;;
55112;SDS011;41006;50.920;3.456;2023-02-01T00:01:52;20.27;;;10.40;;
55112;SDS011;41006;50.920;3.456;2023-02-01T00:02:23;21.05;;;10.38;;
55112;SDS011;41006;50.920;3.456;2023-02-01T00:02:55;18.60;;;9.60;;
55112;SDS011;41006;50.920;3.456;2023-02-01T00:03:26;19.42;;;9.07;;
55112;SDS011;41006;50.920;3.456;2023-02-01T00:03:56;21.42;;;9.40;;
55112;SDS011;41006;50.920;3.456;2023-02-01T00:04:26;22.08;;;9.93;;
55112;SDS011;41006;50.920;3.456;2023-02-01T00:04:59;27.98;;;10.77;;
55112;SDS011;41006;50.920;3.456;2023-02-01T00:05:32;26.05;;;11.02;;
55112;SDS011;41006;50.920;3.456;2023-02-01T00:06:02;19.88;;;11.07;;
55112;SDS011;41006;50.920;3.456;2023-02-01T00:06:32;21.80;;;11.32;;
55112;SDS011;41006;50.920;3.456;2023-02-01T00:07:03;25.63;;;11.07;;
55112;SDS011;41006;50.920;3.456;2023-02-01T00:07:38;21.33;;;10.68;;
55112;SDS011;41006;50.920;3.456;2023-02-01T00:08:11;26.13;;;11.07;;
55112;SDS011;41006;50.920;3.456;2023-02-01T00:08:41;31.05;;;11.25;;
55112;SDS011;41006;50.920;3.456;2023-02-01T00:09:12;20.73;;;9.52;;
55112;SDS011;41006;50.920;3.456;2023-02-01T00:09:42;25.25;;;11.05;;
55112;SDS011;41006;50.920;3.456;2023-02-01T00:10:15;22.13;;;10.65;;
55112;SDS011;41006;50.920;3.456;2023-02-01T00:10:45;22.60;;;11.35;;
55112;SDS011;41006;50.920;3.456;2023-02-01T00:11:16;24.90;;;12.20;;
55112;SDS011;41006;50.920;3.456;2023-02-01T00:11:48;23.38;;;10.85;;
55112;SDS011;41006;50.920;3.456;2023-02-01T00:12:18;25.58;;;10.80;;
55112;SDS011;41006;50.920;3.456;2023-02-01T00:12:49;22.15;;;9.73;;
55112;SDS011;41006;50.920;3.456;2023-02-01T00:13:22;24.10;;;10.98;;
55112;SDS011;41006;50.920;3.456;2023-02-01T00:13:52;19.63;;;10.27;;
55112;SDS011;41006;50.920;3.456;2023-02-01T00:14:22;19.92;;;11.07;;
55112;SDS011;41006;50.920;3.456;2023-02-01T00:14:55;19.90;;;10.00;;
55112;SDS011;41006;50.920;3.456;2023-02-01T00:15:25;28.67;;;11.20;;
55112;SDS011;41006;50.920;3.456;2023-02-01T00:16:01;28.30;;;9.88;;
55112;SDS011;41006;50.920;3.456;2023-02-01T00:16:32;21.00;;;10.00;;
55112;SDS011;41006;50.920;3.456;2023-02-01T00:17:02;28.85;;;12.55;;
55112;SDS011;41006;50.920;3.456;2023-02-01T00:17:35;18.77;;;9.75;;
55112;SDS011;41006;50.920;3.456;2023-02-01T00:18:05;29.67;;;10.43;;
55112;SDS011;41006;50.920;3.456;2023-02-01T00:18:35;20.67;;;10.23;;
55112;SDS011;41006;50.920;3.456;2023-02-01T00:19:15;28.30;;;11.07;;
55112;SDS011;41006;50.920;3.456;2023-02-01T00:19:45;29.25;;;11.32;;
55112;SDS011;41006;50.920;3.456;2023-02-01T00:20:18;23.20;;;11.25;;
55112;SDS011;41006;50.920;3.456;2023-02-01T00:20:48;22.25;;;10.43;;
55112;SDS011;41006;50.920;3.456;2023-02-01T00:21:19;23.35;;;10.60;;
55112;SDS011;41006;50.920;3.456;2023-02-01T00:21:52;24.85;;;10.23;;
55112;SDS011;41006;50.920;3.456;2023-02-01T00:22:25;25.85;;;10.75;;
55112;SDS011;41006;50.920;3.456;2023-02-01T00:22:55;19.10;;;9.52;;
55112;SDS011;41006;50.920;3.456;2023-02-01T00:23:25;28.13;;;10.45;;
55112;SDS011;41006;50.920;3.456;2023-02-01T00:23:56;19.92;;;9.60;;
55112;SDS011;41006;50.920;3.456;2023-02-01T00:24:26;27.83;;;12.30;;
55112;SDS011;41006;50.920;3.456;2023-02-01T00:24:56;21.63;;;11.45;;
55112;SDS011;41006;50.920;3.456;2023-02-01T00:25:26;20.38;;;10.48;;
55112;SDS011;41006;50.920;3.456;2023-02-01T00:25:59;28.35;;;9.85;;
55112;SDS011;41006;50.920;3.456;2023-02-01T00:26:33;23.90;;;11.07;;
55112;SDS011;41006;50.920;3.456;2023-02-01T00:27:03;20.38;;;10.68;;
55112;SDS011;41006;50.920;3.456;2023-02-01T00:27:33;23.73;;;12.07;;
55112;SDS011;41006;50.920;3.456;2023-02-01T00:28:06;18.58;;;10.63;;
55112;SDS011;41006;50.920;3.456;2023-02-01T00:28:36;23.40;;;10.45;;
55112;SDS011;41006;50.920;3.456;2023-02-01T00:29:16;22.40;;;11.43;;
55112;SDS011;41006;50.920;3.456;2023-02-01T00:30:17;19.63;;;9.77;;
55112;SDS011;41006;50.920;3.456;2023-02-01T00:30:55;30.00;;;11.23;;
55112;SDS011;41006;50.920;3.456;2023-02-01T00:31:27;33.20;;;10.90;;
55112;SDS011;41006;50.920;3.456;2023-02-01T00:32:00;22.35;;;10.30;;
55112;SDS011;41006;50.920;3.456;2023-02-01T00:32:33;21.08;;;10.13;;
55112;SDS011;41006;50.920;3.456;2023-02-01T00:33:03;22.13;;;11.00;;
55112;SDS011;41006;50.920;3.456;2023-02-01T00:33:36;25.65;;;11.27;;
55112;SDS011;41006;50.920;3.456;2023-02-01T00:34:06;28.13;;;10.93;;
55112;SDS011;41006;50.920;3.456;2023-02-01T00:34:36;25.27;;;11.30;;
55112;SDS011;41006;50.920;3.456;2023-02-01T00:35:09;25.15;;;10.63;;
55112;SDS011;41006;50.920;3.456;2023-02-01T00:35:39;21.05;;;10.85;;
55112;SDS011;41006;50.920;3.456;2023-02-01T00:36:09;24.48;;;10.20;;
55112;SDS011;41006;50.920;3.456;2023-02-01T00:36:40;20.02;;;10.50;;
55112;SDS011;41006;50.920;3.456;2023-02-01T00:37:10;25.80;;;11.13;;
55112;SDS011;41006;50.920;3.456;2023-02-01T00:37:40;25.23;;;10.80;;
55112;SDS011;41006;50.920;3.456;2023-02-01T00:38:10;27.27;;;10.77;;
55112;SDS011;41006;50.920;3.456;2023-02-01T00:38:45;19.52;;;10.52;;
55112;SDS011;41006;50.920;3.456;2023-02-01T00:39:16;23.63;;;9.90;;
55112;SDS011;41006;50.920;3.456;2023-02-01T00:39:46;31.20;;;11.57;;
55112;SDS011;41006;50.920;3.456;2023-02-01T00:40:19;25.52;;;10.98;;
55112;SDS011;41006;50.920;3.456;2023-02-01T00:40:52;23.40;;;10.00;;
55112;SDS011;41006;50.920;3.456;2023-02-01T00:41:24;26.90;;;10.63;;
55112;SDS011;41006;50.920;3.456;2023-02-01T00:41:55;24.63;;;10.68;;
55112;SDS011;41006;50.920;3.456;2023-02-01T00:42:27;24.40;;;10.98;;
55112;SDS011;41006;50.920;3.456;2023-02-01T00:43:03;20.65;;;11.02;;
55112;SDS011;41006;50.920;3.456;2023-02-01T00:43:36;24.20;;;10.65;;
55112;SDS011;41006;50.920;3.456;2023-02-01T00:44:09;22.25;;;10.43;;
55112;SDS011;41006;50.920;3.456;2023-02-01T00:44:39;26.00;;;12.05;;
55112;SDS011;41006;50.920;3.456;2023-02-01T00:45:09;28.08;;;11.05;;
55112;SDS011;41006;50.920;3.456;2023-02-01T00:45:40;23.63;;;11.77;;
55112;SDS011;41006;50.920;3.456;2023-02-01T00:46:13;22.13;;;11.70;;
55112;SDS011;41006;50.920;3.456;2023-02-01T00:46:43;26.38;;;11.90;;
55112;SDS011;41006;50.920;3.456;2023-02-01T00:47:14;18.95;;;10.20;;
55112;SDS011;41006;50.920;3.456;2023-02-01T00:47:46;28.88;;;11.80;;
55112;SDS011;41006;50.920;3.456;2023-02-01T00:48:17;26.88;;;10.75;;
55112;SDS011;41006;50.920;3.456;2023-02-01T00:48:47;29.15;;;11.57;;
55112;SDS011;41006;50.920;3.456;2023-02-01T00:49:21;24.77;;;10.50;;
55112;SDS011;41006;50.920;3.456;2023-02-01T00:49:52;28.00;;;11.80;;
55112;SDS011;41006;50.920;3.456;2023-02-01T00:50:22;24.60;;;11.93;;
55112;SDS011;41006;50.920;3.456;2023-02-01T00:50:55;26.58;;;11.07;;
55112;SDS011;41006;50.920;3.456;2023-02-01T00:51:28;19.77;;;10.85;;
55112;SDS011;41006;50.920;3.456;2023-02-01T00:51:59;20.98;;;11.13;;
55112;SDS011;41006;50.920;3.456;2023-02-01T00:52:29;25.10;;;11.82;;
55112;SDS011;41006;50.920;3.456;2023-02-01T00:53:02;27.98;;;11.82;;
55112;SDS011;41006;50.920;3.456;2023-02-01T00:53:33;23.42;;;12.18;;
55112;SDS011;41006;50.920;3.456;2023-02-01T00:54:03;26.98;;;12.70;;
55112;SDS011;41006;50.920;3.456;2023-02-01T00:54:34;29.13;;;12.32;;
55112;SDS011;41006;50.920;3.456;2023-02-01T00:55:07;19.33;;;11.40;;
55112;SDS011;41006;50.920;3.456;2023-02-01T00:55:39;20.65;;;11.20;;
55112;SDS011;41006;50.920;3.456;2023-02-01T00:56:10;24.30;;;11.05;;
55112;SDS011;41006;50.920;3.456;2023-02-01T00:56:40;26.00;;;12.30;;
55112;SDS011;41006;50.920;3.456;2023-02-01T00:57:10;25.58;;;11.18;;
55112;SDS011;41006;50.920;3.456;2023-02-01T00:57:40;21.15;;;11.85;;
55112;SDS011;41006;50.920;3.456;2023-02-01T00:58:13;21.85;;;11.70;;
55112;SDS011;41006;50.920;3.456;2023-02-01T00:58:46;21.20;;;10.70;;
55112;SDS011;41006;50.920;3.456;2023-02-01T00:59:19;25.20;;;11.90;;
55112;SDS011;41006;50.920;3.456;2023-02-01T00:59:49;22.45;;;11.40;;
55112;SDS011;41006;50.920;3.456;2023-02-01T01:00:22;25.80;;;11.98;;
55112;SDS011;41006;50.920;3.456;2023-02-01T01:01:36;29.73;;;11.68;;
55112;SDS011;41006;50.920;3.456;2023-02-01T01:02:06;27.52;;;11.40;;
55112;SDS011;41006;50.920;3.456;2023-02-01T01:02:37;19.10;;;11.05;;
55112;SDS011;41006;50.920;3.456;2023-02-01T01:03:07;32.08;;;12.32;;
55112;SDS011;41006;50.920;3.456;2023-02-01T01:03:56;30.85;;;11.75;;
55112;SDS011;41006;50.920;3.456;2023-02-01T01:04:27;26.00;;;10.75;;
55112;SDS011;41006;50.920;3.456;2023-02-01T01:04:57;25.65;;;12.82;;
55112;SDS011;41006;50.920;3.456;2023-02-01T01:05:27;27.65;;;12.45;;
55112;SDS011;41006;50.920;3.456;2023-02-01T01:05:58;29.35;;;13.60;;
55112;SDS011;41006;50.920;3.456;2023-02-01T01:06:29;25.55;;;11.65;;
55112;SDS011;41006;50.920;3.456;2023-02-01T01:07:00;30.73;;;13.10;;
55112;SDS011;41006;50.920;3.456;2023-02-01T01:07:30;22.85;;;11.90;;
55112;SDS011;41006;50.920;3.456;2023-02-01T01:08:00;25.52;;;12.02;;
55112;SDS011;41006;50.920;3.456;2023-02-01T01:08:30;28.35;;;11.85;;
55112;SDS011;41006;50.920;3.456;2023-02-01T01:09:06;25.00;;;11.98;;
55112;SDS011;41006;50.920;3.456;2023-02-01T01:09:37;21.45;;;10.65;;
55112;SDS011;41006;50.920;3.456;2023-02-01T01:10:07;18.48;;;11.60;;
55112;SDS011;41006;50.920;3.456;2023-02-01T01:10:37;29.88;;;12.43;;
55112;SDS011;41006;50.920;3.456;2023-02-01T01:11:17;23.05;;;11.13;;
55112;SDS011;41006;50.920;3.456;2023-02-01T01:11:48;25.98;;;10.95;;
55112;SDS011;41006;50.920;3.456;2023-02-01T01:12:18;23.02;;;12.30;;
55112;SDS011;41006;50.920;3.456;2023-02-01T01:12:49;21.80;;;11.32;;
55112;SDS011;41006;50.920;3.456;2023-02-01T01:13:20;26.63;;;11.27;;
55112;SDS011;41006;50.920;3.456;2023-02-01T01:13:54;29.80;;;12.13;;
55112;SDS011;41006;50.920;3.456;2023-02-01T01:14:29;21.42;;;10.65;;
55112;SDS011;41006;50.920;3.456;2023-02-01T01:14:59;23.80;;;11.50;;
55112;SDS011;41006;50.920;3.456;2023-02-01T01:15:29;27.13;;;13.63;;
55112;SDS011;41006;50.920;3.456;2023-02-01T01:16:02;30.55;;;11.80;;
55112;SDS011;41006;50.920;3.456;2023-02-01T01:16:37;22.50;;;10.68;;
55112;SDS011;41006;50.920;3.456;2023-02-01T01:17:08;18.92;;;11.38;;
55112;SDS011;41006;50.920;3.456;2023-02-01T01:17:40;23.88;;;10.82;;
55112;SDS011;41006;50.920;3.456;2023-02-01T01:18:13;33.22;;;12.02;;
55112;SDS011;41006;50.920;3.456;2023-02-01T01:18:43;22.33;;;11.32;;
55112;SDS011;41006;50.920;3.456;2023-02-01T01:19:14;23.95;;;12.27;;
55112;SDS011;41006;50.920;3.456;2023-02-01T01:19:44;22.42;;;12.13;;
55112;SDS011;41006;50.920;3.456;2023-02-01T01:20:14;29.20;;;11.98;;
55112;SDS011;41006;50.920;3.456;2023-02-01T01:20:44;25.80;;;12.48;;
55112;SDS011;41006;50.920;3.456;2023-02-01T01:21:17;29.17;;;12.93;;
55112;SDS011;41006;50.920;3.456;2023-02-01T01:21:50;24.63;;;12.88;;
55112;SDS011;41006;50.920;3.456;2023-02-01T01:22:21;31.77;;;12.55;;
55112;SDS011;41006;50.920;3.456;2023-02-01T01:22:51;21.75;;;12.02;;
55112;SDS011;41006;50.920;3.456;2023-02-01T01:23:24;23.75;;;10.82;;
55112;SDS011;41006;50.920;3.456;2023-02-01T01:23:54;24.13;;;11.93;;
55112;SDS011;41006;50.920;3.456;2023-02-01T01:24:26;29.02;;;11.70;;
55112;SDS011;41006;50.920;3.456;2023-02-01T01:24:57;23.40;;;12.13;;
55112;SDS011;41006;50.920;3.456;2023-02-01T01:25:27;29.48;;;12.77;;
55112;SDS011;41006;50.920;3.456;2023-02-01T01:26:00;22.35;;;12.38;;
55112;SDS011;41006;50.920;3.456;2023-02-01T01:26:30;24.65;;;12.00;;
55112;SDS011;41006;50.920;3.456;2023-02-01T01:27:00;22.92;;;12.45;;
55112;SDS011;41006;50.920;3.456;2023-02-01T01:27:33;26.88;;;12.75;;
55112;SDS011;41006;50.920;3.456;2023-02-01T01:28:03;24.75;;;11.23;;
55112;SDS011;41006;50.920;3.456;2023-02-01T01:28:38;20.98;;;11.18;;
55112;SDS011;41006;50.920;3.456;2023-02-01T01:29:08;25.00;;;11.60;;
55112;SDS011;41006;50.920;3.456;2023-02-01T01:29:39;19.05;;;10.98;;
55112;SDS011;41006;50.920;3.456;2023-02-01T01:30:11;33.22;;;12.68;;
55112;SDS011;41006;50.920;3.456;2023-02-01T01:30:44;28.33;;;11.88;;
55112;SDS011;41006;50.920;3.456;2023-02-01T01:31:15;23.10;;;11.27;;
55112;SDS011;41006;50.920;3.456;2023-02-01T01:31:48;33.53;;;11.70;;
55112;SDS011;41006;50.920;3.456;2023-02-01T01:32:20;19.13;;;10.65;;
55112;SDS011;41006;50.920;3.456;2023-02-01T01:32:51;20.65;;;11.20;;
55112;SDS011;41006;50.920;3.456;2023-02-01T01:33:21;28.55;;;11.63;;
55112;SDS011;41006;50.920;3.456;2023-02-01T01:33:52;23.08;;;11.80;;
55112;SDS011;41006;50.920;3.456;2023-02-01T01:34:27;28.20;;;12.02;;
55112;SDS011;41006;50.920;3.456;2023-02-01T01:35:00;28.42;;;11.38;;
55112;SDS011;41006;50.920;3.456;2023-02-01T01:35:31;19.98;;;11.25;;
55112;SDS011;41006;50.920;3.456;2023-02-01T01:36:01;22.05;;;10.43;;
55112;SDS011;41006;50.920;3.456;2023-02-01T01:36:32;20.10;;;11.43;;
55112;SDS011;41006;50.920;3.456;2023-02-01T01:37:02;20.35;;;10.55;;
55112;SDS011;41006;50.920;3.456;2023-02-01T01:37:32;22.52;;;10.55;;
55112;SDS011;41006;50.920;3.456;2023-02-01T01:38:02;20.90;;;10.77;;
55112;SDS011;41006;50.920;3.456;2023-02-01T01:38:33;25.92;;;11.55;;
55112;SDS011;41006;50.920;3.456;2023-02-01T01:39:04;22.20;;;11.25;;
55112;SDS011;41006;50.920;3.456;2023-02-01T01:39:35;22.05;;;12.18;;
55112;SDS011;41006;50.920;3.456;2023-02-01T01:40:05;20.92;;;11.25;;
55112;SDS011;41006;50.920;3.456;2023-02-01T01:40:36;29.48;;;13.65;;
55112;SDS011;41006;50.920;3.456;2023-02-01T01:41:07;20.30;;;11.82;;
55112;SDS011;41006;50.920;3.456;2023-02-01T01:41:37;20.58;;;10.88;;
55112;SDS011;41006;50.920;3.456;2023-02-01T01:42:12;17.30;;;11.10;;
55112;SDS011;41006;50.920;3.456;2023-02-01T01:42:45;21.73;;;11.35;;
55112;SDS011;41006;50.920;3.456;2023-02-01T01:43:16;32.50;;;12.35;;
55112;SDS011;41006;50.920;3.456;2023-02-01T01:45:11;22.17;;;11.63;;
55112;SDS011;41006;50.920;3.456;2023-02-01T01:45:46;25.08;;;11.63;;
55112;SDS011;41006;50.920;3.456;2023-02-01T01:46:18;25.98;;;11.93;;
55112;SDS011;41006;50.920;3.456;2023-02-01T01:46:48;26.23;;;12.85;;
55112;SDS011;41006;50.920;3.456;2023-02-01T01:47:21;37.33;;;13.45;;
55112;SDS011;41006;50.920;3.456;2023-02-01T01:47:55;20.73;;;11.63;;
55112;SDS011;41006;50.920;3.456;2023-02-01T01:48:28;29.98;;;11.35;;
55112;SDS011;41006;50.920;3.456;2023-02-01T01:49:32;25.52;;;11.02;;
55112;SDS011;41006;50.920;3.456;2023-02-01T01:50:03;28.13;;;11.85;;
55112;SDS011;41006;50.920;3.456;2023-02-01T01:50:55;30.27;;;11.40;;
55112;SDS011;41006;50.920;3.456;2023-02-01T01:51:29;19.25;;;11.10;;
55112;SDS011;41006;50.920;3.456;2023-02-01T01:52:04;26.85;;;12.32;;
55112;SDS011;41006;50.920;3.456;2023-02-01T01:52:37;27.23;;;11.55;;
55112;SDS011;41006;50.920;3.456;2023-02-01T01:53:12;22.95;;;11.02;;
55112;SDS011;41006;50.920;3.456;2023-02-01T01:54:29;19.80;;;10.75;;
55112;SDS011;41006;50.920;3.456;2023-02-01T01:54:43;25.02;;;9.55;;
55112;SDS011;41006;50.920;3.456;2023-02-01T01:55:18;20.55;;;9.50;;
55112;SDS011;41006;50.920;3.456;2023-02-01T01:55:49;24.65;;;10.10;;
55112;SDS011;41006;50.920;3.456;2023-02-01T01:56:23;17.85;;;8.70;;
55112;SDS011;41006;50.920;3.456;2023-02-01T01:57:00;28.48;;;10.35;;
55112;SDS011;41006;50.920;3.456;2023-02-01T01:57:36;17.70;;;10.27;;
55112;SDS011;41006;50.920;3.456;2023-02-01T01:58:12;22.63;;;9.30;;
55112;SDS011;41006;50.920;3.456;2023-02-01T01:58:46;26.85;;;11.80;;
55112;SDS011;41006;50.920;3.456;2023-02-01T01:59:19;16.63;;;9.20;;
55112;SDS011;41006;50.920;3.456;2023-02-01T01:59:53;28.52;;;10.73;;
55112;SDS011;41006;50.920;3.456;2023-02-01T02:00:26;22.83;;;10.35;;
55112;SDS011;41006;50.920;3.456;2023-02-01T02:00:58;19.92;;;10.55;;
55112;SDS011;41006;50.920;3.456;2023-02-01T02:01:29;23.23;;;9.95;;
55112;SDS011;41006;50.920;3.456;2023-02-01T02:02:01;19.13;;;10.45;;
55112;SDS011;41006;50.920;3.456;2023-02-01T02:02:31;25.00;;;10.35;;
55112;SDS011;41006;50.920;3.456;2023-02-01T02:03:21;28.55;;;10.57;;
55112;SDS011;41006;50.920;3.456;2023-02-01T02:04:24;17.50;;;9.45;;
55112;SDS011;41006;50.920;3.456;2023-02-01T02:04:55;22.98;;;11.07;;
55112;SDS011;41006;50.920;3.456;2023-02-01T02:05:25;15.63;;;9.95;;
55112;SDS011;41006;50.920;3.456;2023-02-01T02:05:57;18.42;;;9.88;;
55112;SDS011;41006;50.920;3.456;2023-02-01T02:06:39;21.95;;;10.55;;
55112;SDS011;41006;50.920;3.456;2023-02-01T02:07:17;20.05;;;9.85;;
55112;SDS011;41006;50.920;3.456;2023-02-01T02:07:50;25.38;;;10.20;;
55112;SDS011;41006;50.920;3.456;2023-02-01T02:08:27;24.27;;;11.80;;
55112;SDS011;41006;50.920;3.456;2023-02-01T02:08:59;23.42;;;10.70;;
55112;SDS011;41006;50.920;3.456;2023-02-01T02:09:32;23.55;;;10.05;;
55112;SDS011;41006;50.920;3.456;2023-02-01T02:10:05;28.30;;;10.25;;
55112;SDS011;41006;50.920;3.456;2023-02-01T02:10:36;24.63;;;11.43;;
55112;SDS011;41006;50.920;3.456;2023-02-01T02:11:27;27.27;;;11.40;;
55112;SDS011;41006;50.920;3.456;2023-02-01T02:11:57;22.33;;;11.20;;
55112;SDS011;41006;50.920;3.456;2023-02-01T02:12:28;20.88;;;10.25;;
55112;SDS011;41006;50.920;3.456;2023-02-01T02:12:58;23.35;;;11.50;;
55112;SDS011;41006;50.920;3.456;2023-02-01T02:13:38;24.40;;;11.18;;
55112;SDS011;41006;50.920;3.456;2023-02-01T02:14:10;24.65;;;11.43;;
55112;SDS011;41006;50.920;3.456;2023-02-01T02:14:41;22.67;;;12.32;;
55112;SDS011;41006;50.920;3.456;2023-02-01T02:15:14;20.92;;;11.13;;
55112;SDS011;41006;50.920;3.456;2023-02-01T02:15:59;25.83;;;12.27;;
55112;SDS011;41006;50.920;3.456;2023-02-01T02:21:28;30.83;;;11.25;;
55112;SDS011;41006;50.920;3.456;2023-02-01T02:34:52;23.05;;;10.25;;
55112;SDS011;41006;50.920;3.456;2023-02-01T02:37:25;30.58;;;11.52;;
55112;SDS011;41006;50.920;3.456;2023-02-01T02:38:03;24.52;;;11.27;;
55112;SDS011;41006;50.920;3.456;2023-02-01T02:38:50;29.40;;;10.95;;
55112;SDS011;41006;50.920;3.456;2023-02-01T02:40:07;18.95;;;11.98;;
55112;SDS011;41006;50.920;3.456;2023-02-01T02:40:49;26.90;;;11.40;;
55112;SDS011;41006;50.920;3.456;2023-02-01T02:43:22;26.08;;;10.32;;
55112;SDS011;41006;50.920;3.456;2023-02-01T02:44:13;23.33;;;10.27;;
55112;SDS011;41006;50.920;3.456;2023-02-01T02:45:19;20.13;;;9.43;;
55112;SDS011;41006;50.920;3.456;2023-02-01T02:46:25;16.30;;;9.73;;
55112;SDS011;41006;50.920;3.456;2023-02-01T02:48:06;22.48;;;10.10;;
55112;SDS011;41006;50.920;3.456;2023-02-01T02:49:20;24.98;;;9.15;;
55112;SDS011;41006;50.920;3.456;2023-02-01T02:49:35;27.17;;;9.65;;
55112;SDS011;41006;50.920;3.456;2023-02-01T02:50:11;24.77;;;10.38;;
55112;SDS011;41006;50.920;3.456;2023-02-01T02:51:04;21.65;;;9.23;;
55112;SDS011;41006;50.920;3.456;2023-02-01T02:51:59;32.83;;;11.55;;
55112;SDS011;41006;50.920;3.456;2023-02-01T02:52:54;25.77;;;9.45;;
55112;SDS011;41006;50.920;3.456;2023-02-01T02:54:41;17.80;;;10.00;;
55112;SDS011;41006;50.920;3.456;2023-02-01T02:55:20;35.08;;;10.52;;
55112;SDS011;41006;50.920;3.456;2023-02-01T02:55:53;24.73;;;9.90;;
55112;SDS011;41006;50.920;3.456;2023-02-01T02:56:46;18.25;;;9.38;;
55112;SDS011;41006;50.920;3.456;2023-02-01T02:57:39;26.92;;;10.48;;
55112;SDS011;41006;50.920;3.456;2023-02-01T02:58:32;27.70;;;9.60;;
55112;SDS011;41006;50.920;3.456;2023-02-01T02:59:21;27.52;;;9.85;;
55112;SDS011;41006;50.920;3.456;2023-02-01T03:00:12;23.35;;;10.52;;
55112;SDS011;41006;50.920;3.456;2023-02-01T03:01:03;25.98;;;9.25;;
55112;SDS011;41006;50.920;3.456;2023-02-01T03:01:54;22.85;;;9.57;;
55112;SDS011;41006;50.920;3.456;2023-02-01T03:02:46;21.92;;;8.10;;
55112;SDS011;41006;50.920;3.456;2023-02-01T03:03:36;20.95;;;8.00;;
55112;SDS011;41006;50.920;3.456;2023-02-01T03:04:25;14.50;;;8.70;;
55112;SDS011;41006;50.920;3.456;2023-02-01T03:05:00;23.95;;;9.63;;
55112;SDS011;41006;50.920;3.456;2023-02-01T03:05:34;17.27;;;9.45;;
55112;SDS011;41006;50.920;3.456;2023-02-01T03:06:08;29.85;;;10.23;;
55112;SDS011;41006;50.920;3.456;2023-02-01T03:06:44;22.35;;;9.98;;
55112;SDS011;41006;50.920;3.456;2023-02-01T03:07:46;21.52;;;9.07;;
55112;SDS011;41006;50.920;3.456;2023-02-01T03:08:37;25.70;;;9.43;;
55112;SDS011;41006;50.920;3.456;2023-02-01T03:09:11;20.20;;;9.27;;
55112;SDS011;41006;50.920;3.456;2023-02-01T03:09:45;30.30;;;10.23;;
55112;SDS011;41006;50.920;3.456;2023-02-01T03:10:19;22.60;;;9.07;;
55112;SDS011;41006;50.920;3.456;2023-02-01T03:11:21;21.05;;;8.98;;
55112;SDS011;41006;50.920;3.456;2023-02-01T03:11:51;28.67;;;9.57;;
55112;SDS011;41006;50.920;3.456;2023-02-01T03:12:41;20.27;;;8.88;;
55112;SDS011;41006;50.920;3.456;2023-02-01T03:13:31;24.30;;;9.43;;
55112;SDS011;41006;50.920;3.456;2023-02-01T03:14:05;22.25;;;8.70;;
55112;SDS011;41006;50.920;3.456;2023-02-01T03:14:36;22.60;;;9.40;;
55112;SDS011;41006;50.920;3.456;2023-02-01T03:15:09;22.67;;;9.15;;
55112;SDS011;41006;50.920;3.456;2023-02-01T03:15:47;19.67;;;8.75;;
55112;SDS011;41006;50.920;3.456;2023-02-01T03:16:23;23.77;;;9.82;;
55112;SDS011;41006;50.920;3.456;2023-02-01T03:16:58;23.05;;;8.73;;
55112;SDS011;41006;50.920;3.456;2023-02-01T03:17:33;27.88;;;8.90;;
55112;SDS011;41006;50.920;3.456;2023-02-01T03:18:08;26.30;;;9.45;;
55112;SDS011;41006;50.920;3.456;2023-02-01T03:18:51;27.35;;;10.45;;
55112;SDS011;41006;50.920;3.456;2023-02-01T03:19:24;16.30;;;8.73;;
55112;SDS011;41006;50.920;3.456;2023-02-01T03:19:55;22.83;;;8.52;;
55112;SDS011;41006;50.920;3.456;2023-02-01T03:20:29;23.05;;;8.50;;
55112;SDS011;41006;50.920;3.456;2023-02-01T03:21:00;26.83;;;9.18;;
55112;SDS011;41006;50.920;3.456;2023-02-01T03:21:47;18.20;;;8.35;;
55112;SDS011;41006;50.920;3.456;2023-02-01T03:22:20;21.85;;;9.18;;
55112;SDS011;41006;50.920;3.456;2023-02-01T03:22:52;33.15;;;10.68;;
55112;SDS011;41006;50.920;3.456;2023-02-01T03:23:24;18.75;;;8.75;;
55112;SDS011;41006;50.920;3.456;2023-02-01T03:23:59;28.17;;;9.65;;
55112;SDS011;41006;50.920;3.456;2023-02-01T03:24:34;20.27;;;9.45;;
55112;SDS011;41006;50.920;3.456;2023-02-01T03:25:10;22.98;;;9.07;;
55112;SDS011;41006;50.920;3.456;2023-02-01T03:25:42;26.15;;;9.15;;
55112;SDS011;41006;50.920;3.456;2023-02-01T03:26:15;15.05;;;9.07;;
55112;SDS011;41006;50.920;3.456;2023-02-01T03:26:52;19.25;;;9.50;;
55112;SDS011;41006;50.920;3.456;2023-02-01T03:27:27;23.65;;;9.48;;
55112;SDS011;41006;50.920;3.456;2023-02-01T03:28:32;23.30;;;9.02;;
55112;SDS011;41006;50.920;3.456;2023-02-01T03:29:17;25.30;;;10.10;;
55112;SDS011;41006;50.920;3.456;2023-02-01T03:30:53;27.05;;;9.32;;
55112;SDS011;41006;50.920;3.456;2023-02-01T03:31:26;20.42;;;9.85;;
55112;SDS011;41006;50.920;3.456;2023-02-01T03:31:59;25.38;;;8.77;;
55112;SDS011;41006;50.920;3.456;2023-02-01T03:32:30;27.90;;;9.25;;
55112;SDS011;41006;50.920;3.456;2023-02-01T03:33:55;21.08;;;8.30;;
55112;SDS011;41006;50.920;3.456;2023-02-01T03:34:28;17.33;;;9.07;;
55112;SDS011;41006;50.920;3.456;2023-02-01T03:34:58;14.35;;;9.45;;
55112;SDS011;41006;50.920;3.456;2023-02-01T03:37:02;21.35;;;8.23;;
55112;SDS011;41006;50.920;3.456;2023-02-01T03:37:32;22.77;;;8.82;;
55112;SDS011;41006;50.920;3.456;2023-02-01T03:38:22;20.88;;;8.40;;
55112;SDS011;41006;50.920;3.456;2023-02-01T03:40:14;20.98;;;7.90;;
55112;SDS011;41006;50.920;3.456;2023-02-01T03:40:46;23.85;;;8.05;;
55112;SDS011;41006;50.920;3.456;2023-02-01T03:42:17;23.13;;;8.60;;
55112;SDS011;41006;50.920;3.456;2023-02-01T03:42:49;28.92;;;8.73;;
55112;SDS011;41006;50.920;3.456;2023-02-01T03:43:25;20.75;;;8.77;;
55112;SDS011;41006;50.920;3.456;2023-02-01T03:44:46;21.20;;;8.57;;
55112;SDS011;41006;50.920;3.456;2023-02-01T03:45:20;21.02;;;9.02;;
55112;SDS011;41006;50.920;3.456;2023-02-01T03:45:54;17.58;;;8.60;;
55112;SDS011;41006;50.920;3.456;2023-02-01T03:46:31;33.15;;;9.77;;
55112;SDS011;41006;50.920;3.456;2023-02-01T03:47:21;22.10;;;8.55;;
55112;SDS011;41006;50.920;3.456;2023-02-01T03:47:55;23.48;;;9.55;;
55112;SDS011;41006;50.920;3.456;2023-02-01T03:48:27;27.45;;;10.25;;
55112;SDS011;41006;50.920;3.456;2023-02-01T03:49:05;19.88;;;8.60;;
55112;SDS011;41006;50.920;3.456;2023-02-01T03:49:37;20.10;;;8.93;;
55112;SDS011;41006;50.920;3.456;2023-02-01T03:50:10;21.27;;;9.52;;
55112;SDS011;41006;50.920;3.456;2023-02-01T03:50:46;26.73;;;9.50;;
55112;SDS011;41006;50.920;3.456;2023-02-01T03:51:17;21.15;;;9.10;;
55112;SDS011;41006;50.920;3.456;2023-02-01T03:51:50;26.88;;;9.50;;
55112;SDS011;41006;50.920;3.456;2023-02-01T03:52:42;25.00;;;9.23;;
55112;SDS011;41006;50.920;3.456;2023-02-01T03:53:13;18.48;;;8.95;;
55112;SDS011;41006;50.920;3.456;2023-02-01T03:53:46;27.67;;;10.00;;
55112;SDS011;41006;50.920;3.456;2023-02-01T03:54:19;24.42;;;10.18;;
55112;SDS011;41006;50.920;3.456;2023-02-01T03:54:50;24.45;;;8.75;;
55112;SDS011;41006;50.920;3.456;2023-02-01T03:55:21;25.90;;;10.40;;
55112;SDS011;41006;50.920;3.456;2023-02-01T03:55:52;30.13;;;9.85;;
55112;SDS011;41006;50.920;3.456;2023-02-01T03:56:23;24.88;;;10.10;;
55112;SDS011;41006;50.920;3.456;2023-02-01T03:56:55;21.45;;;9.13;;